National Weather Service Raw Text Product

Displaying AFOS PIL: TAFDSM Received: 2018-01-12 04:49 UTC


142 
FTUS43 KDMX 120449 AAB
TAFDSM
TAF AMD
KDSM 120449Z 1205/1224 33017G24KT 6SM BLSN FEW015 SCT045
     FM120600 34015G24KT P6SM SCT025
     FM121000 35010KT P6SM SKC=